Latest Weather Observations for Hunters Hill

IDV60801

Issued at 8:05 pm EST Tuesday 30 September 2014 (issued every 30 minutes, with the page automatically refreshed every 10 minutes)

About weather observations | Map of weather stations | Latest weather observations for VIC | Other Formats
Station Details ID: 082139 Name: HUNTERS HILL Lat: -36.21 Lon: 147.54 Height: 981.0 m
Data from the previous 72 hours. | See also: Recent months at Hunters Hill
Date/Time
EST
Temp
°C
App
Temp
°C
Dew
Point
Rel
Hum
%
Delta-T
°C
Wind Press
QNH
hPa
Press
MSL
hPa
Rain
since 9 am
mm
Dir
 
Spd
km/h
Gust
km/h
Spd
kts
Gust
kts
30/08:01pm 12.2 5.6 4.2 58 3.8 W 28 56 15 30 - - 0.0
30/08:00pm 12.2 6.0 4.2 58 3.8 W 26 56 14 30 - - 0.0
30/07:47pm 13.4 6.4 4.0 53 4.5 WSW 30 52 16 28 - - 0.0
30/07:30pm 13.8 8.4 4.4 53 4.6 WNW 22 43 12 23 - - 0.0
30/07:00pm 14.2 8.3 3.9 50 5.0 W 24 50 13 27 - - 0.0
30/06:30pm 14.3 9.9 4.6 52 4.8 WNW 17 41 9 22 - - 0.0
30/06:00pm 14.8 10.6 3.9 48 5.3 WNW 15 33 8 18 - - 0.0
30/05:30pm 15.0 10.1 4.1 48 5.3 WNW 19 41 10 22 - - 0.0
30/05:00pm 15.0 10.1 4.1 48 5.3 WNW 19 41 10 22 - - 0.0
30/04:30pm 15.8 10.9 4.2 46 5.7 NW 19 41 10 22 - - 0.0
30/04:00pm 15.9 11.5 4.9 48 5.5 WNW 17 37 9 20 - - 0.0
30/03:30pm 15.5 10.0 3.9 46 5.7 WNW 22 39 12 21 - - 0.0
30/03:00pm 16.3 12.1 3.7 43 6.1 NW 15 32 8 17 - - 0.0
30/02:30pm 17.1 12.1 3.8 41 6.5 W 19 41 10 22 - - 0.0
30/02:00pm 16.4 10.1 1.3 36 7.0 NW 24 43 13 23 - - 0.0
30/01:30pm 16.5 11.3 2.5 39 6.7 NW 19 50 10 27 - - 0.0
30/01:00pm 16.2 10.5 2.9 41 6.4 WNW 22 44 12 24 - - 0.0
30/12:30pm 15.9 11.1 4.9 48 5.5 NW 19 43 10 23 - - 0.0
30/12:00pm 15.6 10.7 5.2 50 5.2 NW 20 43 11 23 - - 0.0
30/11:30am 15.6 10.7 4.9 49 5.3 WNW 20 46 11 25 - - 0.0
30/11:00am 16.4 12.7 6.2 51 5.2 NW 15 35 8 19 - - 0.0
30/10:30am 15.8 11.4 4.5 47 5.6 NW 17 37 9 20 - - 0.0
30/10:00am 15.6 11.5 4.3 47 5.6 NW 15 28 8 15 - - 0.0
30/09:30am 15.4 11.9 5.3 51 5.1 NNW 13 28 7 15 - - 0.0
30/09:00am 14.4 11.7 5.5 55 4.4 NW 9 20 5 11 - - 0.0
30/08:30am 13.6 10.8 5.0 56 4.2 NNW 9 22 5 12 - - 0.0
30/08:00am 13.2 10.9 5.9 61 3.6 N 7 15 4 8 - - 0.0
30/07:30am 11.9 9.8 5.8 66 3.0 N 6 19 3 10 - - 0.0
30/07:00am 11.4 9.0 5.1 65 3.1 NNW 7 15 4 8 - - 0.0
30/06:30am 11.1 8.6 4.6 64 3.1 N 7 13 4 7 - - 0.0
30/06:00am 10.4 7.9 4.5 67 2.8 N 7 13 4 7 - - 0.0
30/05:30am 10.1 7.6 4.9 70 2.5 NNE 7 13 4 7 - - 0.0
30/05:00am 10.4 7.9 4.8 68 2.7 NNE 7 13 4 7 - - 0.0
30/04:30am 10.3 8.1 5.1 70 2.5 NNE 6 11 3 6 - - 0.0
30/04:00am 10.0 8.2 5.2 72 2.3 NNE 4 6 2 3 - - 0.0
30/03:30am 10.1 8.3 5.5 73 2.2 NNE 4 4 2 2 - - 0.0
30/03:00am 10.9 8.7 5.4 69 2.7 NNE 6 7 3 4 - - 0.0
30/02:30am 10.6 8.8 5.4 70 2.5 NNE 4 6 2 3 - - 0.0
30/02:00am 10.8 9.0 5.3 69 2.7 NNE 4 6 2 3 - - 0.0
30/01:30am 10.9 9.1 5.4 69 2.7 NNE 4 6 2 3 - - 0.0
30/01:00am 11.1 8.9 5.2 67 2.9 NNE 6 9 3 5 - - 0.0
30/12:30am 11.3 9.4 5.0 65 3.0 NNE 4 7 2 4 - - 0.0
30/12:00am 11.3 9.1 5.2 66 3.0 NNE 6 9 3 5 - - 0.0
 
Date/Time
EST
Temp
°C
App
Temp
°C
Dew
Point
Rel
Hum
%
Delta-T
°C
Wind Press
QNH
hPa
Press
MSL
hPa
Rain
since 9 am
mm
Dir
 
Spd
km/h
Gust
km/h
Spd
kts
Gust
kts
29/11:30pm 11.2 9.1 5.7 69 2.7 NNE 6 7 3 4 - - 0.0
29/11:00pm 11.3 9.7 6.2 71 2.5 NNE 4 6 2 3 - - 0.0
29/10:30pm 11.2 9.3 6.7 74 2.3 NNE 6 7 3 4 - - 0.0
29/10:00pm 10.9 9.1 7.2 78 1.9 NNE 6 7 3 4 - - 0.0
29/09:30pm 11.2 9.2 7.3 77 2.0 NNE 7 11 4 6 - - 0.0
29/09:00pm 11.3 9.5 7.0 75 2.2 WNW 6 7 3 4 - - 0.0
29/08:30pm 11.1 9.6 6.8 75 2.2 WNW 4 7 2 4 - - 0.0
29/08:00pm 10.9 9.4 6.8 76 2.1 WNW 4 7 2 4 - - 0.0
29/07:30pm 11.0 9.1 6.7 75 2.2 WNW 6 7 3 4 - - 0.0
29/07:00pm 11.1 9.2 6.8 75 2.2 WNW 6 9 3 5 - - 0.0
29/06:30pm 11.5 9.4 6.8 73 2.4 W 7 15 4 8 - - 0.0
29/06:00pm 12.7 10.6 6.5 66 3.1 W 7 13 4 7 - - 0.0
29/05:30pm 13.7 11.0 5.6 58 4.0 WNW 9 15 5 8 - - 0.0
29/05:00pm 15.1 12.1 3.9 47 5.4 WNW 9 19 5 10 - - 0.0
29/04:30pm 16.1 13.7 5.1 48 5.5 WNW 7 15 4 8 - - 0.0
29/04:00pm 16.4 14.0 5.1 47 5.7 W 7 15 4 8 - - 0.0
29/03:30pm 16.9 13.9 3.9 42 6.4 NW 9 19 5 10 - - 0.0
29/03:00pm 16.7 13.2 3.4 41 6.5 NW 11 20 6 11 - - 0.0
29/02:30pm 17.1 14.4 5.4 46 5.9 WNW 9 15 5 8 - - 0.0
29/02:00pm 17.3 14.3 4.3 42 6.5 W 9 20 5 11 - - 0.0
29/01:30pm 17.0 14.2 5.0 45 6.0 W 9 19 5 10 - - 0.0
29/01:00pm 17.1 14.0 5.7 47 5.8 WNW 11 19 6 10 - - 0.0
29/12:30pm 17.2 13.7 3.5 40 6.7 WNW 11 24 6 13 - - 0.0
29/12:00pm 16.9 13.9 4.3 43 6.2 W 9 20 5 11 - - 0.0
29/11:30am 16.6 14.1 6.7 52 5.1 WNW 9 20 5 11 - - 0.0
29/11:00am 16.0 13.1 4.7 47 5.6 NNW 9 20 5 11 - - 0.0
29/10:30am 15.5 13.1 5.4 51 5.1 NW 7 17 4 9 - - 0.0
29/10:00am 14.7 12.1 4.1 49 5.2 NNW 7 15 4 8 - - 0.0
29/09:30am 15.1 13.0 5.6 53 4.8 N 6 9 3 5 - - 0.0
29/09:00am 14.4 11.9 4.7 52 4.8 N 7 17 4 9 - - 0.0
29/08:30am 13.1 10.4 3.5 52 4.6 NNE 7 13 4 7 - - 0.0
29/08:00am 12.3 9.7 4.0 57 4.0 NE 7 17 4 9 - - 0.0
29/07:30am 11.3 8.8 4.5 63 3.3 N 7 13 4 7 - - 0.0
29/07:00am 10.8 7.7 3.8 62 3.3 N 9 15 5 8 - - 0.0
29/06:30am 10.6 7.4 3.2 60 3.4 N 9 17 5 9 - - 0.0
29/06:00am 10.5 7.8 2.8 59 3.5 N 6 15 3 8 - - 0.0
29/05:30am 11.3 8.1 2.9 56 3.9 NW 9 19 5 10 - - 0.0
29/05:00am 11.9 7.9 2.6 53 4.3 NW 13 26 7 14 - - 0.0
29/04:30am 12.4 8.7 2.6 51 4.5 WNW 11 22 6 12 - - 0.0
29/04:00am 13.1 9.0 2.4 48 5.0 NW 13 28 7 15 - - 0.0
29/03:30am 13.7 9.2 2.3 46 5.3 NW 15 30 8 16 - - 0.0
29/03:00am 13.7 9.7 2.9 48 5.1 NNW 13 22 7 12 - - 0.0
29/02:30am 13.2 9.7 3.6 52 4.6 N 11 24 6 13 - - 0.0
29/02:00am 13.3 9.8 3.7 52 4.6 N 11 19 6 10 - - 0.0
29/01:30am 13.5 10.1 4.1 53 4.5 N 11 17 6 9 - - 0.0
29/01:00am 13.5 10.1 4.1 53 4.5 N 11 20 6 11 - - 0.0
29/12:30am 13.8 10.0 4.1 52 4.7 N 13 28 7 15 - - 0.0
29/12:00am 13.9 10.2 4.2 52 4.7 N 13 22 7 12 - - 0.0
 
Date/Time
EST
Temp
°C
App
Temp
°C
Dew
Point
Rel
Hum
%
Delta-T
°C
Wind Press
QNH
hPa
Press
MSL
hPa
Rain
since 9 am
mm
Dir
 
Spd
km/h
Gust
km/h
Spd
kts
Gust
kts
28/11:30pm 13.7 10.4 4.6 54 4.4 N 11 22 6 12 - - 0.0
28/11:00pm 13.8 10.1 4.7 54 4.5 N 13 26 7 14 - - 0.0
28/10:30pm 14.1 10.1 4.9 54 4.5 N 15 26 8 14 - - 0.0
28/10:00pm 14.1 10.7 5.7 57 4.2 N 13 22 7 12 - - 0.0
28/09:30pm 14.0 10.7 6.4 60 3.9 N 13 22 7 12 - - 0.0
28/09:00pm 13.8 11.1 7.3 65 3.4 N 11 20 6 11 - - 0.0
28/08:30pm 13.4 11.2 8.0 70 2.8 NNE 9 17 5 9 - - 0.0
28/08:00pm 13.3 11.6 8.2 71 2.7 NNE 7 17 4 9 - - 0.0
28/07:30pm 13.6 11.4 8.0 69 2.9 NNE 9 19 5 10 - - 0.0
28/07:00pm 13.5 12.0 9.2 75 2.3 N 7 19 4 10 - - 0.0
28/06:30pm 13.9 12.2 9.9 77 2.2 NNE 9 17 5 9 - - 0.0
28/06:00pm 14.0 12.7 9.8 76 2.3 N 7 13 4 7 - - 0.0
28/05:30pm 14.8 13.6 9.4 70 2.9 N 6 13 3 7 - - 0.0
28/05:00pm 15.8 14.4 9.5 66 3.4 N 7 19 4 10 - - 0.0
28/04:30pm 15.9 14.1 9.3 65 3.6 N 9 17 5 9 - - 0.0
28/04:00pm 16.2 14.2 8.7 61 4.0 N 9 19 5 10 - - 0.0
28/03:30pm 16.8 14.8 8.8 59 4.3 N 9 19 5 10 - - 0.0
28/03:00pm 15.9 13.8 8.2 60 4.1 N 9 24 5 13 - - 0.0
28/02:30pm 16.9 14.8 8.1 56 4.7 N 9 17 5 9 - - 0.0
28/02:00pm 17.6 16.5 10.0 61 4.2 ENE 6 9 3 5 - - 0.0
28/01:30pm 16.9 15.4 9.1 60 4.2 N 7 15 4 8 - - 0.0
28/01:00pm 16.1 14.6 8.3 60 4.2 N 6 15 3 8 - - 0.0
28/12:30pm 16.8 15.6 9.5 62 4.0 NW 6 15 3 8 - - 0.0
28/12:00pm 15.3 13.5 8.1 62 3.8 N 7 13 4 7 - - 0.0
28/11:30am 16.0 14.8 9.4 65 3.6 N 6 13 3 7 - - 0.0
28/11:00am 15.0 13.2 8.0 63 3.7 WNW 7 13 4 7 - - 0.0
28/10:30am 14.9 13.4 8.4 65 3.5 NNE 6 9 3 5 - - 0.0
28/10:00am 14.4 12.9 8.4 67 3.2 N 6 15 3 8 - - 0.0
28/09:30am 13.8 12.4 9.0 73 2.6 NNW 6 13 3 7 - - 0.0
28/09:00am 13.0 11.3 7.7 70 2.7 W 6 11 3 6 - - 0.0
28/08:30am 12.5 11.6 7.6 72 2.5 W 2 6 1 3 - - 0.0
28/08:00am 10.8 9.7 8.4 85 1.2 W 4 7 2 4 - - 0.0
28/07:30am 10.0 9.2 8.3 89 0.9 W 2 4 1 2 - - 0.0
28/07:00am 9.2 8.3 7.8 91 0.7 W 2 6 1 3 - - 0.0
28/06:30am 8.6 7.2 7.4 92 0.6 W 4 6 2 3 - - 0.0
28/06:00am 7.6 6.6 7.5 99 0.0 W 2 4 1 2 - - 0.0
28/05:30am 7.6 6.6 7.5 99 0.0 W 2 4 1 2 - - 0.0
28/05:00am 7.8 6.9 7.7 99 0.0 W 2 4 1 2 - - 0.0
28/04:30am 7.6 6.6 7.5 99 0.0 W 2 6 1 3 - - 0.0
28/04:00am 7.4 6.0 7.3 99 0.0 W 4 6 2 3 - - 0.0
28/03:30am 7.5 6.5 7.4 99 0.0 W 2 6 1 3 - - 0.0
28/03:00am 7.6 6.6 7.5 99 0.0 W 2 4 1 2 - - 0.0
28/02:30am 7.6 6.3 7.5 99 0.0 W 4 6 2 3 - - 0.0
28/02:00am 8.0 7.1 7.7 98 0.2 W 2 7 1 4 - - 0.0
28/01:30am 8.3 7.3 7.5 95 0.4 W 2 4 1 2 - - 0.0
28/01:00am 8.7 7.4 7.5 92 0.6 W 4 6 2 3 - - 0.0
28/12:30am 8.5 7.4 7.0 90 0.7 W 2 4 1 2 - - 0.0
28/12:00am 9.4 8.2 6.5 82 1.4 W 2 4 1 2 - - 0.0
 
Date/Time
EST
Temp
°C
App
Temp
°C
Dew
Point
Rel
Hum
%
Delta-T
°C
Wind Press
QNH
hPa
Press
MSL
hPa
Rain
since 9 am
mm
Dir
 
Spd
km/h
Gust
km/h
Spd
kts
Gust
kts
27/11:30pm 9.5 7.9 6.4 81 1.5 W 4 6 2 3 - - 0.0
27/11:00pm 9.6 8.1 6.9 83 1.3 W 4 7 2 4 - - 0.0
27/10:30pm 9.3 7.6 7.4 88 1.0 W 6 7 3 4 - - 0.0
27/10:00pm 9.4 7.6 7.3 87 1.1 W 6 7 3 4 - - 0.0
27/09:30pm 9.4 7.4 7.3 87 1.1 W 7 11 4 6 - - 0.0
27/09:00pm 9.2 7.4 7.8 91 0.7 W 7 11 4 6 - - 0.0
27/08:30pm 9.3 7.1 7.9 91 0.7 W 9 13 5 7 - - 0.0

Other Formats:

Comma delimited format used in spreadsheet applications
http://www.bom.gov.au/fwo/IDV60801/IDV60801.94878.axf

JavaScript Object Notation format (JSON) in row-major order
http://www.bom.gov.au/fwo/IDV60801/IDV60801.94878.json